Time;durP1;ratioP1;P1;durP2;ratioP2;P2;SDS_P1;SDS_P2;PMS_P1;PMS_P2;Temp;Humidity;BMP_temperature;BMP_pressure;BME280_temperature;BME280_humidity;BME280_pressure;Samples;Min_cycle;Max_cycle;Signal;HPM_P1;HPM_P2
2021/08/15 00:01:16;;;;;;;19.02;7.45;;;;;;;;;;5016248;28;20093;-71
2021/08/15 00:03:42;;;;;;;14.75;7.53;;;;;;;;;;5016206;28;20459;-71
2021/08/15 00:06:08;;;;;;;10.70;7.05;;;;;;;;;;5015710;28;20060;-71
2021/08/15 00:08:35;;;;;;;19.15;7.20;;;;;;;;;;5015983;28;20429;-71
2021/08/15 00:11:02;;;;;;;18.38;7.35;;;;;;;;;;5015971;28;20028;-71
2021/08/15 00:13:28;;;;;;;17.55;6.95;;;;;;;;;;5016031;28;20022;-71
2021/08/15 00:15:55;;;;;;;14.63;7.03;;;;;;;;;;5015871;28;20010;-71
2021/08/15 00:18:21;;;;;;;14.90;7.45;;;;;;;;;;5015733;28;20069;-71
2021/08/15 00:20:47;;;;;;;10.95;6.85;;;;;;;;;;5015810;28;20467;-71
2021/08/15 00:23:12;;;;;;;15.98;7.25;;;;;;;;;;5015721;28;20030;-71
2021/08/15 00:25:38;;;;;;;18.23;7.05;;;;;;;;;;5015676;28;20029;-71
2021/08/15 00:28:11;;;;;;;15.32;6.78;;;;;;;;;;5015714;28;20110;-71
2021/08/15 00:30:38;;;;;;;16.55;7.22;;;;;;;;;;5015789;28;20021;-71
2021/08/15 00:33:04;;;;;;;25.73;7.38;;;;;;;;;;5015584;28;20471;-71
2021/08/15 00:35:30;;;;;;;14.23;7.82;;;;;;;;;;5015514;28;20022;-71
2021/08/15 00:37:56;;;;;;;13.45;7.55;;;;;;;;;;5015573;28;20021;-71
2021/08/15 00:40:21;;;;;;;19.15;7.72;;;;;;;;;;5015233;28;20438;-71
2021/08/15 00:42:54;;;;;;;16.65;7.13;;;;;;;;;;5015492;28;20072;-71
2021/08/15 00:45:20;;;;;;;13.90;8.35;;;;;;;;;;5015212;28;20380;-71
2021/08/15 00:47:46;;;;;;;13.65;6.85;;;;;;;;;;5015362;28;20060;-71
2021/08/15 00:50:12;;;;;;;17.38;8.25;;;;;;;;;;5015314;28;20026;-70
2021/08/15 00:52:38;;;;;;;18.70;7.25;;;;;;;;;;4997741;28;20018;-71
2021/08/15 00:55:07;;;;;;;19.80;7.88;;;;;;;;;;5014807;28;20038;-71
2021/08/15 00:57:34;;;;;;;10.30;6.63;;;;;;;;;;5015195;28;20048;-71
2021/08/15 01:00:05;;;;;;;16.67;7.57;;;;;;;;;;5014965;28;20084;-71
2021/08/15 01:02:32;;;;;;;21.90;8.80;;;;;;;;;;5015133;28;20022;-71
2021/08/15 01:04:58;;;;;;;22.00;8.00;;;;;;;;;;5014806;28;20081;-71
2021/08/15 01:07:24;;;;;;;16.35;8.35;;;;;;;;;;5013674;28;20029;-71
2021/08/15 01:09:50;;;;;;;19.80;8.43;;;;;;;;;;5015017;28;20097;-72
2021/08/15 01:12:16;;;;;;;17.30;7.05;;;;;;;;;;5014591;28;20025;-71
2021/08/15 01:14:43;;;;;;;15.40;7.95;;;;;;;;;;5014918;28;20022;-71
2021/08/15 01:17:08;;;;;;;12.07;6.97;;;;;;;;;;5014901;28;20403;-71
2021/08/15 01:19:35;;;;;;;16.73;7.35;;;;;;;;;;5014828;28;20032;-71
2021/08/15 01:22:03;;;;;;;16.23;7.90;;;;;;;;;;5014510;28;20068;-71
2021/08/15 01:24:29;;;;;;;19.60;8.30;;;;;;;;;;5014416;28;20026;-71
2021/08/15 01:26:56;;;;;;;19.83;7.70;;;;;;;;;;5014680;28;20029;-72
2021/08/15 01:29:23;;;;;;;15.32;7.50;;;;;;;;;;5014629;28;20026;-72
2021/08/15 01:31:49;;;;;;;18.60;8.13;;;;;;;;;;5014530;28;20026;-71
2021/08/15 01:34:16;;;;;;;18.02;7.43;;;;;;;;;;5014281;28;20053;-71
2021/08/15 01:36:41;;;;;;;14.95;8.07;;;;;;;;;;5014367;28;20010;-71
2021/08/15 01:39:08;;;;;;;18.35;7.55;;;;;;;;;;5014631;28;20040;-71
2021/08/15 01:41:34;;;;;;;12.18;7.97;;;;;;;;;;5014662;28;20021;-71
2021/08/15 01:44:02;;;;;;;15.45;7.47;;;;;;;;;;5014255;28;20030;-71
2021/08/15 01:46:29;;;;;;;14.60;7.70;;;;;;;;;;5014099;28;20072;-71
2021/08/15 01:48:55;;;;;;;12.25;7.47;;;;;;;;;;5014240;28;20029;-71
2021/08/15 01:51:21;;;;;;;19.35;8.40;;;;;;;;;;5013952;28;20022;-70
2021/08/15 01:53:48;;;;;;;19.67;8.85;;;;;;;;;;5014183;28;20368;-71
2021/08/15 01:56:15;;;;;;;19.02;8.35;;;;;;;;;;5013810;28;20014;-70
2021/08/15 01:58:41;;;;;;;15.80;8.50;;;;;;;;;;5014124;28;20018;-71
2021/08/15 02:01:07;;;;;;;13.50;7.45;;;;;;;;;;5014044;28;20387;-71
2021/08/15 02:03:34;;;;;;;18.10;8.05;;;;;;;;;;4996128;28;20021;-71
2021/08/15 02:06:00;;;;;;;16.67;8.25;;;;;;;;;;5012778;28;20054;-70
2021/08/15 02:08:25;;;;;;;22.08;8.15;;;;;;;;;;5013708;28;20395;-71
2021/08/15 02:10:52;;;;;;;16.83;7.97;;;;;;;;;;5014154;28;20032;-71
2021/08/15 02:13:18;;;;;;;17.83;8.90;;;;;;;;;;5013783;28;20018;-71
2021/08/15 02:15:44;;;;;;;15.13;7.78;;;;;;;;;;5013846;28;20017;-71
2021/08/15 02:18:10;;;;;;;19.15;8.52;;;;;;;;;;4995966;28;20033;-71
2021/08/15 02:20:37;;;;;;;17.50;8.98;;;;;;;;;;4995961;28;20010;-71
2021/08/15 02:23:06;;;;;;;17.05;8.27;;;;;;;;;;4996216;28;20490;-71
2021/08/15 02:25:32;;;;;;;14.68;7.47;;;;;;;;;;5013557;28;20034;-71
2021/08/15 02:27:59;;;;;;;21.33;7.85;;;;;;;;;;5013598;28;20014;-71
2021/08/15 02:30:24;;;;;;;19.38;8.13;;;;;;;;;;5013202;28;20409;-71
2021/08/15 02:32:51;;;;;;;17.63;8.30;;;;;;;;;;5013450;28;20022;-71
2021/08/15 02:35:17;;;;;;;17.63;8.80;;;;;;;;;;5013293;28;20024;-70
2021/08/15 02:37:45;;;;;;;16.63;7.85;;;;;;;;;;5013423;28;20056;-71
2021/08/15 02:40:12;;;;;;;14.30;7.43;;;;;;;;;;5013205;28;20109;-71
2021/08/15 02:42:40;;;;;;;23.73;8.73;;;;;;;;;;5013497;28;20018;-71
2021/08/15 02:45:07;;;;;;;16.65;9.02;;;;;;;;;;4995867;28;20065;-71
2021/08/15 02:47:33;;;;;;;15.52;8.25;;;;;;;;;;5013152;28;20022;-70
2021/08/15 02:50:00;;;;;;;16.77;7.88;;;;;;;;;;5013215;28;20510;-71
2021/08/15 02:52:25;;;;;;;18.35;8.60;;;;;;;;;;4995428;28;20410;-71
2021/08/15 02:54:51;;;;;;;16.85;8.18;;;;;;;;;;5013086;28;20032;-71
2021/08/15 02:57:18;;;;;;;15.35;9.20;;;;;;;;;;5013091;28;20541;-70
2021/08/15 02:59:44;;;;;;;23.15;8.70;;;;;;;;;;5013128;28;20025;-71
2021/08/15 03:02:12;;;;;;;19.00;8.02;;;;;;;;;;5012836;28;20026;-70
2021/08/15 03:04:38;;;;;;;20.55;8.77;;;;;;;;;;5012732;28;20064;-71
2021/08/15 03:07:04;;;;;;;19.73;8.05;;;;;;;;;;5013067;28;20026;-71
2021/08/15 03:09:31;;;;;;;18.15;8.73;;;;;;;;;;5012910;28;20430;-71
2021/08/15 03:11:57;;;;;;;19.95;9.27;;;;;;;;;;5012996;28;20053;-71
2021/08/15 03:14:22;;;;;;;20.52;8.75;;;;;;;;;;5012818;28;20022;-71
2021/08/15 03:16:49;;;;;;;25.13;9.93;;;;;;;;;;4997800;28;20544;-71
2021/08/15 03:19:15;;;;;;;20.23;8.48;;;;;;;;;;5001931;28;20033;-71
2021/08/15 03:21:42;;;;;;;18.42;8.70;;;;;;;;;;5019508;28;20080;-71
2021/08/15 03:24:07;;;;;;;20.83;8.50;;;;;;;;;;5019238;28;20383;-71
2021/08/15 03:26:36;;;;;;;16.33;8.25;;;;;;;;;;5019447;28;20079;-71
2021/08/15 03:29:03;;;;;;;15.82;7.63;;;;;;;;;;5019433;28;20018;-71
2021/08/15 03:31:29;;;;;;;18.40;8.32;;;;;;;;;;5019279;28;20026;-71
2021/08/15 03:33:55;;;;;;;16.98;8.52;;;;;;;;;;5019125;28;20378;-71
2021/08/15 03:36:20;;;;;;;20.98;7.82;;;;;;;;;;5019075;28;20076;-71
2021/08/15 03:38:46;;;;;;;18.35;8.40;;;;;;;;;;5019324;28;20430;-71
2021/08/15 03:41:13;;;;;;;17.17;7.97;;;;;;;;;;5019263;28;20017;-71
2021/08/15 03:43:39;;;;;;;19.27;8.95;;;;;;;;;;5019340;28;20033;-71
2021/08/15 03:46:04;;;;;;;18.10;8.63;;;;;;;;;;5018980;28;20036;-71
2021/08/15 03:48:31;;;;;;;18.85;8.57;;;;;;;;;;5019066;28;20013;-71
2021/08/15 03:50:57;;;;;;;24.83;10.48;;;;;;;;;;5019170;28;20018;-71
2021/08/15 03:53:23;;;;;;;15.25;8.32;;;;;;;;;;5019237;28;20046;-71
2021/08/15 03:55:48;;;;;;;13.63;8.23;;;;;;;;;;5019048;28;20100;-71
2021/08/15 03:58:14;;;;;;;27.77;9.18;;;;;;;;;;5018862;28;20112;-71
2021/08/15 04:00:40;;;;;;;17.67;8.55;;;;;;;;;;5019001;28;20479;-72
2021/08/15 04:03:10;;;;;;;15.98;8.27;;;;;;;;;;5018948;28;20014;-71
2021/08/15 04:05:36;;;;;;;19.00;8.35;;;;;;;;;;5018971;28;20056;-71
2021/08/15 04:08:05;;;;;;;16.75;8.13;;;;;;;;;;5001387;28;20021;-71
2021/08/15 04:10:32;;;;;;;19.58;8.45;;;;;;;;;;5019033;28;20378;-71
2021/08/15 04:12:58;;;;;;;19.15;9.13;;;;;;;;;;5019030;28;20018;-71
2021/08/15 04:15:25;;;;;;;19.70;7.88;;;;;;;;;;5018895;28;20506;-71
2021/08/15 04:17:51;;;;;;;16.23;8.65;;;;;;;;;;5001601;28;20060;-71
2021/08/15 04:20:17;;;;;;;15.27;8.77;;;;;;;;;;5018541;28;20450;-71
2021/08/15 04:22:43;;;;;;;20.10;9.18;;;;;;;;;;5018883;28;20018;-71
2021/08/15 04:25:10;;;;;;;14.95;8.75;;;;;;;;;;5018922;28;20018;-71
2021/08/15 04:27:35;;;;;;;14.05;8.48;;;;;;;;;;5018458;28;20017;-71
2021/08/15 04:30:01;;;;;;;19.77;8.98;;;;;;;;;;4997530;28;20014;-70
2021/08/15 04:32:27;;;;;;;15.48;8.32;;;;;;;;;;5015277;28;20045;-71
2021/08/15 04:34:54;;;;;;;21.65;8.32;;;;;;;;;;5015684;28;20022;-71
2021/08/15 04:37:20;;;;;;;22.80;8.55;;;;;;;;;;5015628;28;20048;-71
2021/08/15 04:39:46;;;;;;;16.95;8.93;;;;;;;;;;5015715;28;20057;-71
2021/08/15 04:42:12;;;;;;;15.75;8.20;;;;;;;;;;5015433;28;20374;-71
2021/08/15 04:44:38;;;;;;;30.50;9.60;;;;;;;;;;5015403;28;20022;-70
2021/08/15 04:47:03;;;;;;;24.80;8.05;;;;;;;;;;5015460;28;20045;-71
2021/08/15 04:49:30;;;;;;;29.08;10.88;;;;;;;;;;4997887;28;20018;-72
2021/08/15 04:51:56;;;;;;;18.90;9.02;;;;;;;;;;5015312;28;20041;-72
2021/08/15 04:54:26;;;;;;;20.38;8.68;;;;;;;;;;5014987;28;20046;-71
2021/08/15 04:56:52;;;;;;;24.85;8.77;;;;;;;;;;5015301;28;20033;-71
2021/08/15 04:59:18;;;;;;;15.23;7.40;;;;;;;;;;5015274;28;20018;-71
2021/08/15 05:01:44;;;;;;;13.70;7.18;;;;;;;;;;5015084;28;20026;-72
2021/08/15 05:04:10;;;;;;;13.82;7.93;;;;;;;;;;5014642;28;20014;-72
2021/08/15 05:06:36;;;;;;;18.95;8.02;;;;;;;;;;5014994;28;20066;-72
2021/08/15 05:09:02;;;;;;;16.52;8.35;;;;;;;;;;5014999;28;20014;-72
2021/08/15 05:11:29;;;;;;;16.77;7.38;;;;;;;;;;5014975;28;20382;-72
2021/08/15 05:13:55;;;;;;;17.88;7.30;;;;;;;;;;5014749;28;20030;-72
2021/08/15 05:16:21;;;;;;;14.55;7.60;;;;;;;;;;5014557;28;20113;-72
2021/08/15 05:18:46;;;;;;;16.33;7.65;;;;;;;;;;5014891;28;20024;-73
2021/08/15 05:21:13;;;;;;;20.23;7.85;;;;;;;;;;5014875;28;20018;-72
2021/08/15 05:23:39;;;;;;;19.83;7.32;;;;;;;;;;5014713;28;20010;-72
2021/08/15 05:26:06;;;;;;;15.50;7.57;;;;;;;;;;5014591;28;20033;-72
2021/08/15 05:28:32;;;;;;;16.02;6.80;;;;;;;;;;5014550;28;20026;-72
2021/08/15 05:30:58;;;;;;;17.00;7.93;;;;;;;;;;5014479;28;20033;-73
2021/08/15 05:33:24;;;;;;;19.10;7.90;;;;;;;;;;5014517;28;20430;-73
2021/08/15 05:35:51;;;;;;;21.23;7.70;;;;;;;;;;5014460;28;20037;-72
2021/08/15 05:38:16;;;;;;;14.73;8.13;;;;;;;;;;5014296;28;20026;-72
2021/08/15 05:40:43;;;;;;;25.42;7.95;;;;;;;;;;4995919;28;20493;-72
2021/08/15 05:43:09;;;;;;;26.30;9.07;;;;;;;;;;5014336;28;20442;-72
2021/08/15 05:45:37;;;;;;;20.65;8.68;;;;;;;;;;5014039;28;20073;-72
2021/08/15 05:48:04;;;;;;;13.88;7.85;;;;;;;;;;5014306;28;20022;-72
2021/08/15 05:50:29;;;;;;;19.65;8.00;;;;;;;;;;4996802;28;20069;-72
2021/08/15 05:52:56;;;;;;;20.58;7.72;;;;;;;;;;5014221;28;20446;-72
2021/08/15 05:55:22;;;;;;;16.30;7.20;;;;;;;;;;5014040;28;20018;-71
2021/08/15 05:57:48;;;;;;;22.17;7.45;;;;;;;;;;5014021;28;20018;-72
2021/08/15 06:00:14;;;;;;;17.08;7.32;;;;;;;;;;5013785;28;20018;-71
2021/08/15 06:02:41;;;;;;;17.98;7.65;;;;;;;;;;5013911;28;20029;-72
2021/08/15 06:05:09;;;;;;;16.13;7.03;;;;;;;;;;5013819;28;20058;-72
2021/08/15 06:07:36;;;;;;;21.92;7.35;;;;;;;;;;4996290;28;20117;-72
2021/08/15 06:10:01;;;;;;;12.43;6.10;;;;;;;;;;4996138;28;20399;-72
2021/08/15 06:12:27;;;;;;;14.43;6.03;;;;;;;;;;5013662;28;20026;-72
2021/08/15 06:14:53;;;;;;;18.77;7.32;;;;;;;;;;5013811;28;20018;-72
2021/08/15 06:17:20;;;;;;;18.80;7.97;;;;;;;;;;5013837;28;20021;-72
2021/08/15 06:19:45;;;;;;;15.00;7.57;;;;;;;;;;5013779;28;20453;-73
2021/08/15 06:22:13;;;;;;;13.25;7.07;;;;;;;;;;4995920;28;20121;-72
2021/08/15 06:24:39;;;;;;;14.63;7.03;;;;;;;;;;5013623;28;20053;-72
2021/08/15 06:27:05;;;;;;;14.02;7.13;;;;;;;;;;5013993;28;20088;-72
2021/08/15 06:29:31;;;;;;;13.82;6.88;;;;;;;;;;5013485;28;20378;-72
2021/08/15 06:31:57;;;;;;;13.52;6.72;;;;;;;;;;5013595;28;20032;-72
2021/08/15 06:34:23;;;;;;;11.15;6.65;;;;;;;;;;5013320;28;20378;-70
2021/08/15 06:36:49;;;;;;;16.77;6.72;;;;;;;;;;5013345;28;20043;-71
2021/08/15 06:39:14;;;;;;;15.32;6.28;;;;;;;;;;5013445;28;20064;-71
2021/08/15 06:41:40;;;;;;;11.70;5.63;;;;;;;;;;5013439;28;20049;-71
2021/08/15 06:44:07;;;;;;;13.68;6.25;;;;;;;;;;5012978;28;20061;-71
2021/08/15 06:46:34;;;;;;;12.27;5.57;;;;;;;;;;5013199;28;20021;-71
2021/08/15 06:49:00;;;;;;;7.85;4.40;;;;;;;;;;5013228;28;20018;-71
2021/08/15 06:51:25;;;;;;;11.32;4.72;;;;;;;;;;5012833;28;20028;-71
2021/08/15 06:53:52;;;;;;;9.88;4.20;;;;;;;;;;5013264;28;20018;-71
2021/08/15 06:56:18;;;;;;;10.77;4.93;;;;;;;;;;5012943;28;20100;-70
2021/08/15 06:58:44;;;;;;;10.80;4.78;;;;;;;;;;5012884;28;20028;-71
2021/08/15 07:01:09;;;;;;;8.40;4.47;;;;;;;;;;5013153;28;20016;-71
2021/08/15 07:03:36;;;;;;;12.25;4.85;;;;;;;;;;4995574;28;20026;-71
2021/08/15 07:06:02;;;;;;;13.48;4.82;;;;;;;;;;5012675;28;20514;-72
2021/08/15 07:08:28;;;;;;;14.57;5.53;;;;;;;;;;5012771;28;20021;-71
2021/08/15 07:10:54;;;;;;;9.77;4.88;;;;;;;;;;5013251;28;20021;-71
2021/08/15 07:13:22;;;;;;;9.68;5.15;;;;;;;;;;4979130;28;20493;-71
2021/08/15 07:15:48;;;;;;;;;;;;;;;;;;5013437;28;20018;-72
2021/08/15 07:18:14;;;;;;;9.77;4.47;;;;;;;;;;5012733;28;19912;-71
2021/08/15 07:20:41;;;;;;;13.18;4.75;;;;;;;;;;5012861;28;20109;-71
2021/08/15 07:23:07;;;;;;;13.13;5.07;;;;;;;;;;5012986;28;20013;-71
2021/08/15 07:25:33;;;;;;;11.38;4.60;;;;;;;;;;5012776;28;20542;-71
2021/08/15 07:28:01;;;;;;;13.15;5.00;;;;;;;;;;5012628;28;20434;-71
2021/08/15 07:30:27;;;;;;;13.20;4.75;;;;;;;;;;5012653;28;20069;-71
2021/08/15 07:32:54;;;;;;;7.13;4.28;;;;;;;;;;5012900;28;20053;-71
2021/08/15 07:35:21;;;;;;;6.17;4.63;;;;;;;;;;5012726;28;20430;-72
2021/08/15 07:37:47;;;;;;;11.05;4.88;;;;;;;;;;5012741;28;20021;-71
2021/08/15 07:40:14;;;;;;;8.48;4.60;;;;;;;;;;5012629;28;20025;-71
2021/08/15 07:42:40;;;;;;;11.23;4.70;;;;;;;;;;4995088;28;20022;-71
2021/08/15 07:45:06;;;;;;;6.72;4.30;;;;;;;;;;5012475;28;20033;-71
2021/08/15 07:47:33;;;;;;;8.75;4.22;;;;;;;;;;5012731;28;20018;-71
2021/08/15 07:50:00;;;;;;;11.60;4.28;;;;;;;;;;5012703;28;20504;-71
2021/08/15 07:52:26;;;;;;;12.98;4.57;;;;;;;;;;5012378;28;20028;-71
2021/08/15 07:54:51;;;;;;;5.63;3.83;;;;;;;;;;5012518;28;20527;-70
2021/08/15 07:57:19;;;;;;;13.20;4.40;;;;;;;;;;4994777;28;20042;-71
2021/08/15 07:59:45;;;;;;;15.73;4.20;;;;;;;;;;5012550;28;20113;-71
2021/08/15 08:02:11;;;;;;;11.15;4.63;;;;;;;;;;5012348;28;20018;-71
2021/08/15 08:04:38;;;;;;;7.68;3.95;;;;;;;;;;5014598;28;20085;-72
2021/08/15 08:07:05;;;;;;;11.85;4.20;;;;;;;;;;4998635;28;20462;-72
2021/08/15 08:09:32;;;;;;;9.93;4.93;;;;;;;;;;5016140;28;20021;-71
2021/08/15 08:11:59;;;;;;;9.25;4.65;;;;;;;;;;5016037;28;20026;-71
2021/08/15 08:14:24;;;;;;;9.93;4.60;;;;;;;;;;5015897;28;20111;-71
2021/08/15 08:16:52;;;;;;;15.73;5.13;;;;;;;;;;5016049;28;20486;-72
2021/08/15 08:19:18;;;;;;;6.03;4.20;;;;;;;;;;5015975;28;20025;-72
2021/08/15 08:21:45;;;;;;;9.50;4.18;;;;;;;;;;5015855;28;20109;-71
2021/08/15 08:24:11;;;;;;;10.07;4.30;;;;;;;;;;5015641;28;20017;-72
2021/08/15 08:26:37;;;;;;;11.20;4.60;;;;;;;;;;5015748;28;20386;-71
2021/08/15 08:29:03;;;;;;;7.45;3.92;;;;;;;;;;4998328;28;20022;-72
2021/08/15 08:31:30;;;;;;;12.85;4.78;;;;;;;;;;4998145;28;20022;-71
2021/08/15 08:33:55;;;;;;;7.97;4.65;;;;;;;;;;4998390;28;20028;-71
2021/08/15 08:36:21;;;;;;;9.80;4.32;;;;;;;;;;5015459;28;20545;-71
2021/08/15 08:38:48;;;;;;;16.13;4.60;;;;;;;;;;5015563;28;20052;-71
2021/08/15 08:41:15;;;;;;;9.45;4.63;;;;;;;;;;5015434;28;20014;-71
2021/08/15 08:43:41;;;;;;;8.10;4.80;;;;;;;;;;5015455;28;20022;-71
2021/08/15 08:46:08;;;;;;;8.18;4.53;;;;;;;;;;5015250;28;20125;-71
2021/08/15 08:48:35;;;;;;;10.40;5.15;;;;;;;;;;5015441;28;20043;-71
2021/08/15 08:51:02;;;;;;;9.45;5.10;;;;;;;;;;5015737;28;20018;-72
2021/08/15 08:53:29;;;;;;;14.75;5.15;;;;;;;;;;5015278;28;20010;-71
2021/08/15 08:55:55;;;;;;;7.47;4.77;;;;;;;;;;5015286;28;20072;-71
2021/08/15 08:58:21;;;;;;;5.93;4.50;;;;;;;;;;5015083;28;20732;-71
2021/08/15 09:00:49;;;;;;;8.48;4.72;;;;;;;;;;5015008;28;20113;-71
2021/08/15 09:03:15;;;;;;;;;;;;;;;;;;5015657;28;20037;-71
2021/08/15 09:05:50;;;;;;;4.97;4.38;;;;;;;;;;5014668;28;20054;-71
2021/08/15 09:08:30;;;;;;;8.75;5.00;;;;;;;;;;5014933;28;20383;-71
2021/08/15 09:11:14;;;;;;;7.15;4.40;;;;;;;;;;5014999;28;20026;-71
2021/08/15 09:13:41;;;;;;;6.43;3.92;;;;;;;;;;5014784;28;20479;-71
2021/08/15 09:16:07;;;;;;;7.13;4.22;;;;;;;;;;5014552;28;20057;-72
2021/08/15 09:18:34;;;;;;;6.10;3.88;;;;;;;;;;5014887;28;20033;-72
2021/08/15 09:20:59;;;;;;;7.95;4.45;;;;;;;;;;5014731;28;20021;-72
2021/08/15 09:23:27;;;;;;;5.55;3.97;;;;;;;;;;5014827;28;20029;-71
2021/08/15 09:26:11;;;;;;;4.32;3.92;;;;;;;;;;5014643;28;20371;-72
2021/08/15 09:28:37;;;;;;;10.95;4.60;;;;;;;;;;5014656;28;20068;-72
2021/08/15 09:31:16;;;;;;;8.80;3.97;;;;;;;;;;5014631;28;20515;-72
2021/08/15 09:33:42;;;;;;;7.40;4.25;;;;;;;;;;4992880;28;20487;-72
2021/08/15 09:36:11;;;;;;;5.75;4.03;;;;;;;;;;5009627;28;20029;-72
2021/08/15 09:38:44;;;;;;;10.38;4.35;;;;;;;;;;5014414;28;20411;-72
2021/08/15 09:41:23;;;;;;;9.38;3.95;;;;;;;;;;5014588;28;20101;-72
2021/08/15 09:43:49;;;;;;;6.15;4.40;;;;;;;;;;5014190;28;20021;-71
2021/08/15 09:46:15;;;;;;;7.68;4.25;;;;;;;;;;5014176;28;20037;-72
2021/08/15 09:48:41;;;;;;;6.38;4.13;;;;;;;;;;5014329;28;20022;-72
2021/08/15 09:51:11;;;;;;;7.70;3.85;;;;;;;;;;5014339;28;20096;-72
2021/08/15 09:53:39;;;;;;;6.00;3.97;;;;;;;;;;5014372;28;20021;-71
2021/08/15 09:56:05;;;;;;;;;;;;;;;;;;5014598;28;20026;-71
2021/08/15 09:58:31;;;;;;;10.80;4.10;;;;;;;;;;5013894;28;19905;-72
2021/08/15 10:01:00;;;;;;;9.23;4.10;;;;;;;;;;5014053;28;20434;-72
2021/08/15 10:03:25;;;;;;;8.00;4.05;;;;;;;;;;5013975;28;20021;-71
2021/08/15 10:05:54;;;;;;;9.05;3.90;;;;;;;;;;5014273;28;20046;-71
2021/08/15 10:08:21;;;;;;;11.65;4.30;;;;;;;;;;5013660;28;20018;-71
2021/08/15 10:10:47;;;;;;;5.25;3.65;;;;;;;;;;5013873;28;20017;-71
2021/08/15 10:13:17;;;;;;;7.28;4.05;;;;;;;;;;5013847;28;20559;-71
2021/08/15 10:15:43;;;;;;;9.38;4.28;;;;;;;;;;5013826;28;20402;-71
2021/08/15 10:18:10;;;;;;;8.32;4.88;;;;;;;;;;5013659;28;20022;-72
2021/08/15 10:20:36;;;;;;;7.55;4.00;;;;;;;;;;5013642;28;20014;-72
2021/08/15 10:23:09;;;;;;;9.02;3.97;;;;;;;;;;5013763;28;20030;-72
2021/08/15 10:25:39;;;;;;;5.03;3.78;;;;;;;;;;5012201;28;20360;-71
2021/08/15 10:28:05;;;;;;;16.50;5.28;;;;;;;;;;5013173;28;20030;-71
2021/08/15 10:30:45;;;;;;;8.65;4.68;;;;;;;;;;5013677;28;20025;-71
2021/08/15 10:33:19;;;;;;;8.90;4.28;;;;;;;;;;5013601;28;20360;-72
2021/08/15 10:36:04;;;;;;;10.10;3.80;;;;;;;;;;5013458;28;20033;-72
2021/08/15 10:38:30;;;;;;;8.00;3.60;;;;;;;;;;4991798;28;20045;-71
2021/08/15 10:40:57;;;;;;;7.07;3.88;;;;;;;;;;5008004;28;20018;-72
2021/08/15 10:43:31;;;;;;;10.65;3.70;;;;;;;;;;4995876;28;20514;-71
2021/08/15 10:46:18;;;;;;;5.70;4.10;;;;;;;;;;5013115;28;20034;-72
2021/08/15 10:48:51;;;;;;;7.07;3.60;;;;;;;;;;5013106;28;20022;-72
2021/08/15 10:51:36;;;;;;;10.52;3.65;;;;;;;;;;5013393;28;20028;-72
2021/08/15 10:54:01;;;;;;;10.20;4.18;;;;;;;;;;5013098;28;20474;-72
2021/08/15 10:56:45;;;;;;;5.60;3.45;;;;;;;;;;5013001;28;20022;-72
2021/08/15 10:59:30;;;;;;;7.20;4.45;;;;;;;;;;5013170;28;20025;-72
2021/08/15 11:02:07;;;;;;;8.45;4.30;;;;;;;;;;5012895;28;20401;-72
2021/08/15 11:04:33;;;;;;;7.03;3.53;;;;;;;;;;5012832;28;20380;-73
2021/08/15 11:07:00;;;;;;;7.68;3.72;;;;;;;;;;5013071;28;20032;-72
2021/08/15 11:09:45;;;;;;;4.97;3.30;;;;;;;;;;5012803;28;20036;-71
2021/08/15 11:12:12;;;;;;;7.82;3.83;;;;;;;;;;4991392;28;20023;-73
2021/08/15 11:14:52;;;;;;;10.18;3.78;;;;;;;;;;5011295;28;20021;-72
2021/08/15 11:17:18;;;;;;;7.53;3.85;;;;;;;;;;5013004;28;20422;-72
2021/08/15 11:19:44;;;;;;;8.65;3.90;;;;;;;;;;5013301;28;20026;-72
2021/08/15 11:22:13;;;;;;;12.63;3.72;;;;;;;;;;5012736;28;20022;-71
2021/08/15 11:24:48;;;;;;;8.45;4.20;;;;;;;;;;5012812;28;20052;-71
2021/08/15 11:27:30;;;;;;;9.75;3.80;;;;;;;;;;4995638;28;20467;-71
2021/08/15 11:29:58;;;;;;;6.70;4.15;;;;;;;;;;4995286;28;20390;-71
2021/08/15 11:32:28;;;;;;;6.90;3.88;;;;;;;;;;5012389;28;20036;-71
2021/08/15 11:34:59;;;;;;;10.20;4.28;;;;;;;;;;4995528;28;20121;-72
2021/08/15 11:37:26;;;;;;;8.50;3.85;;;;;;;;;;4996253;28;20028;-72
2021/08/15 11:39:53;;;;;;;8.40;3.80;;;;;;;;;;5016694;28;20040;-71
2021/08/15 11:42:23;;;;;;;7.03;3.67;;;;;;;;;;5016495;28;20017;-71
2021/08/15 11:45:07;;;;;;;13.23;4.13;;;;;;;;;;4998784;28;20560;-72
2021/08/15 11:47:36;;;;;;;7.72;3.90;;;;;;;;;;5016406;28;20048;-71
2021/08/15 11:50:09;;;;;;;6.75;4.03;;;;;;;;;;5016510;28;20056;-71
2021/08/15 11:52:36;;;;;;;9.73;3.28;;;;;;;;;;5016588;28;20029;-71
2021/08/15 11:55:04;;;;;;;6.20;3.90;;;;;;;;;;4998922;28;20022;-71
2021/08/15 11:57:30;;;;;;;;;;;;;;;;;;5016586;28;20018;-71
2021/08/15 12:00:04;;;;;;;9.93;4.13;;;;;;;;;;5016410;28;19917;-71
2021/08/15 12:02:36;;;;;;;6.07;3.75;;;;;;;;;;5016324;28;20033;-71
2021/08/15 12:05:02;;;;;;;10.57;4.18;;;;;;;;;;5015888;28;20549;-71
2021/08/15 12:07:28;;;;;;;6.68;3.47;;;;;;;;;;4998717;28;20030;-71
2021/08/15 12:10:12;;;;;;;10.73;4.82;;;;;;;;;;5016096;28;20022;-71
2021/08/15 12:12:37;;;;;;;9.65;4.07;;;;;;;;;;5016084;28;20496;-71
2021/08/15 12:15:07;;;;;;;6.43;3.95;;;;;;;;;;5016105;28;20018;-72
2021/08/15 12:17:51;;;;;;;6.95;3.60;;;;;;;;;;5016023;28;20028;-71
2021/08/15 12:20:18;;;;;;;6.00;3.90;;;;;;;;;;5015827;28;20021;-72
2021/08/15 12:22:44;;;;;;;7.95;3.80;;;;;;;;;;5015745;28;20029;-71
2021/08/15 12:25:18;;;;;;;8.00;4.38;;;;;;;;;;5015969;28;20025;-71
2021/08/15 12:27:44;;;;;;;7.50;3.95;;;;;;;;;;5015818;28;20502;-71
2021/08/15 12:30:11;;;;;;;8.48;3.67;;;;;;;;;;5015677;28;20025;-71
2021/08/15 12:32:36;;;;;;;9.77;4.13;;;;;;;;;;5015578;28;20070;-71
2021/08/15 12:35:03;;;;;;;12.40;4.40;;;;;;;;;;4998110;28;20026;-71
2021/08/15 12:37:30;;;;;;;12.05;4.30;;;;;;;;;;5015663;28;20021;-71
2021/08/15 12:40:10;;;;;;;11.15;4.57;;;;;;;;;;5015591;28;20542;-71
2021/08/15 12:42:38;;;;;;;11.57;4.30;;;;;;;;;;5015556;28;20032;-70
2021/08/15 12:45:06;;;;;;;7.35;4.55;;;;;;;;;;5015324;28;20471;-71
2021/08/15 12:47:33;;;;;;;5.18;3.95;;;;;;;;;;5015526;28;20037;-71
2021/08/15 12:50:03;;;;;;;8.68;4.60;;;;;;;;;;5014645;28;20026;-71
2021/08/15 12:52:39;;;;;;;8.45;4.18;;;;;;;;;;5015422;28;20083;-71
2021/08/15 12:55:15;;;;;;;9.32;4.40;;;;;;;;;;5015442;28;20029;-71
2021/08/15 12:57:42;;;;;;;8.45;4.32;;;;;;;;;;5015159;28;20018;-71
2021/08/15 13:00:09;;;;;;;8.85;3.88;;;;;;;;;;5014891;28;20535;-71
2021/08/15 13:02:36;;;;;;;6.55;3.92;;;;;;;;;;5015136;28;20022;-71
2021/08/15 13:05:03;;;;;;;10.70;4.50;;;;;;;;;;5014898;28;20050;-71
2021/08/15 13:07:29;;;;;;;9.85;4.13;;;;;;;;;;5015271;28;20010;-71
2021/08/15 13:09:55;;;;;;;9.38;4.22;;;;;;;;;;5015027;28;20025;-71
2021/08/15 13:12:22;;;;;;;8.45;3.70;;;;;;;;;;5014806;28;20478;-71
2021/08/15 13:14:49;;;;;;;14.25;4.05;;;;;;;;;;5014842;28;20054;-71
2021/08/15 13:17:15;;;;;;;12.07;4.43;;;;;;;;;;4997390;28;20384;-71
2021/08/15 13:19:41;;;;;;;6.20;3.50;;;;;;;;;;4997258;28;20017;-72
2021/08/15 13:22:07;;;;;;;8.77;3.80;;;;;;;;;;5014747;28;20080;-72
2021/08/15 13:24:34;;;;;;;5.70;4.03;;;;;;;;;;5014689;28;20419;-72
2021/08/15 13:27:01;;;;;;;9.20;4.03;;;;;;;;;;5014669;28;20498;-71
2021/08/15 13:29:27;;;;;;;8.13;4.35;;;;;;;;;;4993141;28;20018;-71
2021/08/15 13:31:54;;;;;;;14.05;4.03;;;;;;;;;;5010545;28;20042;-71
2021/08/15 13:34:19;;;;;;;7.80;4.00;;;;;;;;;;5014250;28;20045;-71
2021/08/15 13:36:46;;;;;;;7.00;4.10;;;;;;;;;;5014414;28;20022;-71
2021/08/15 13:39:12;;;;;;;6.00;3.65;;;;;;;;;;5014646;28;20014;-71
2021/08/15 13:41:38;;;;;;;8.48;4.03;;;;;;;;;;5014552;28;20021;-71
2021/08/15 13:44:04;;;;;;;6.78;4.15;;;;;;;;;;5014602;28;20021;-71
2021/08/15 13:46:31;;;;;;;9.60;4.00;;;;;;;;;;5014231;28;20168;-71
2021/08/15 13:48:58;;;;;;;6.20;4.30;;;;;;;;;;5014572;28;20388;-71
2021/08/15 13:51:24;;;;;;;8.98;4.43;;;;;;;;;;4980482;28;20020;-71
2021/08/15 13:53:53;;;;;;;6.45;4.13;;;;;;;;;;5014199;28;20017;-71
2021/08/15 13:56:18;;;;;;;11.25;4.28;;;;;;;;;;5014057;28;20018;-71
2021/08/15 13:58:45;;;;;;;8.55;3.70;;;;;;;;;;5014010;28;20032;-71
2021/08/15 14:01:12;;;;;;;8.45;3.90;;;;;;;;;;5013252;28;20021;-71
2021/08/15 14:03:38;;;;;;;5.43;3.40;;;;;;;;;;5013949;28;20092;-71
2021/08/15 14:06:05;;;;;;;7.63;3.92;;;;;;;;;;5013786;28;20061;-71
2021/08/15 14:08:31;;;;;;;6.18;3.72;;;;;;;;;;5014050;28;20454;-71
2021/08/15 14:10:58;;;;;;;8.15;4.10;;;;;;;;;;5014090;28;20112;-71
2021/08/15 14:13:24;;;;;;;7.68;3.60;;;;;;;;;;5013635;28;20040;-71
2021/08/15 14:15:50;;;;;;;7.32;3.80;;;;;;;;;;5013656;28;20025;-72
2021/08/15 14:18:16;;;;;;;5.25;3.80;;;;;;;;;;5013716;28;20064;-72
2021/08/15 14:20:43;;;;;;;7.38;3.70;;;;;;;;;;5013602;28;20021;-72
2021/08/15 14:23:09;;;;;;;8.23;3.83;;;;;;;;;;5013776;28;20022;-72
2021/08/15 14:25:35;;;;;;;8.32;3.80;;;;;;;;;;5013541;28;20506;-72
2021/08/15 14:28:01;;;;;;;7.18;3.70;;;;;;;;;;5013689;28;20028;-71
2021/08/15 14:30:27;;;;;;;6.85;3.80;;;;;;;;;;5013387;28;20018;-71
2021/08/15 14:32:53;;;;;;;8.43;3.80;;;;;;;;;;5013668;28;20044;-71
2021/08/15 14:35:19;;;;;;;7.38;3.53;;;;;;;;;;4996173;28;20149;-71
2021/08/15 14:37:46;;;;;;;5.47;3.88;;;;;;;;;;5013421;28;20018;-71